createdAt,value
2022-11-26T00:00:31.584Z,77.31
2022-11-26T00:05:33.200Z,76.44
2022-11-26T00:10:35.872Z,76.63
2022-11-26T00:15:37.269Z,77.48
2022-11-26T00:20:39.095Z,77.16
2022-11-26T00:25:46.988Z,77.20
2022-11-26T00:30:48.324Z,77.82
2022-11-26T00:35:52.259Z,76.84
2022-11-26T00:40:53.695Z,77.66
2022-11-26T00:45:55.118Z,76.94
2022-11-26T00:50:56.554Z,77.40
2022-11-26T00:55:57.897Z,77.62
2022-11-26T01:00:59.968Z,76.82
2022-11-26T01:06:01.453Z,78.08
2022-11-26T01:11:04.829Z,77.11
2022-11-26T01:16:16.782Z,77.62
2022-11-26T01:21:19.174Z,77.35
2022-11-26T01:26:23.026Z,77.70
2022-11-26T01:31:26.970Z,77.26
2022-11-26T01:36:29.545Z,77.28
2022-11-26T01:41:44.598Z,76.96
2022-11-26T01:46:47.166Z,77.11
2022-11-26T01:51:55.659Z,77.63
2022-11-26T01:56:59.851Z,77.78
2022-11-26T02:02:01.633Z,77.63
2022-11-26T02:07:03.462Z,77.69
2022-11-26T02:12:05.085Z,78.62
2022-11-26T02:17:26.050Z,78.94
2022-11-26T02:22:55.786Z,78.82
2022-11-26T02:28:02.823Z,79.04
2022-11-26T02:33:23.567Z,80.10
2022-11-26T02:38:30.281Z,79.60
2022-11-26T02:43:33.090Z,79.80
2022-11-26T02:48:39.147Z,79.28
2022-11-26T02:53:47.600Z,78.43
2022-11-26T02:58:52.006Z,78.08
2022-11-26T03:03:55.388Z,78.11
2022-11-26T03:08:57.162Z,78.19
2022-11-26T03:13:58.742Z,78.07
2022-11-26T03:19:00.315Z,77.57
2022-11-26T03:24:01.820Z,77.53
2022-11-26T03:29:03.390Z,77.26
2022-11-26T03:34:04.863Z,77.59
2022-11-26T03:39:06.738Z,77.45
2022-11-26T03:44:08.188Z,77.20
2022-11-26T03:49:10.470Z,76.81
2022-11-26T03:54:13.160Z,77.00
2022-11-26T03:59:14.669Z,77.41
2022-11-26T04:04:16.401Z,77.29
2022-11-26T04:09:17.906Z,77.22
2022-11-26T04:19:35.986Z,77.33
2022-11-26T04:24:37.772Z,76.85
2022-11-26T04:29:39.362Z,76.85
2022-11-26T04:40:11.716Z,77.37
2022-11-26T04:45:13.224Z,77.27
2022-11-26T04:50:14.762Z,76.70
2022-11-26T04:55:18.003Z,77.31
2022-11-26T05:00:19.971Z,76.87
2022-11-26T05:05:21.626Z,76.91
2022-11-26T05:10:23.259Z,77.46
2022-11-26T05:15:24.873Z,76.92
2022-11-26T05:20:26.449Z,76.55
2022-11-26T05:25:28.017Z,77.12
2022-11-26T05:30:29.572Z,77.00
2022-11-26T05:35:31.176Z,77.44
2022-11-26T05:40:32.754Z,76.97
2022-11-26T05:45:34.346Z,77.34
2022-11-26T05:50:35.922Z,77.14
2022-11-26T05:55:37.597Z,77.46
2022-11-26T06:00:39.169Z,77.24
2022-11-26T06:05:40.712Z,77.50
2022-11-26T06:10:43.724Z,77.12
2022-11-26T06:15:46.012Z,77.27
2022-11-26T06:20:47.588Z,76.73
2022-11-26T06:25:49.164Z,76.85
2022-11-26T06:30:51.340Z,77.64
2022-11-26T06:35:52.926Z,76.93
2022-11-26T06:41:02.887Z,77.33
2022-11-26T06:46:08.906Z,77.37
2022-11-26T06:51:17.336Z,77.13
2022-11-26T06:56:19.433Z,77.29
2022-11-26T07:01:23.841Z,77.22
2022-11-26T07:06:27.634Z,77.26
2022-11-26T07:11:28.989Z,77.13
2022-11-26T07:16:30.555Z,77.56
2022-11-26T07:21:32.027Z,77.65
2022-11-26T07:26:33.437Z,77.75
2022-11-26T07:31:36.218Z,77.57
2022-11-26T07:36:42.805Z,77.49
2022-11-26T07:41:44.164Z,78.03
2022-11-26T07:46:45.497Z,78.05
2022-11-26T07:51:46.855Z,78.45
2022-11-26T08:39:04.056Z,78.22
2022-11-26T08:44:07.535Z,78.81
2022-11-26T08:49:12.360Z,78.87
2022-11-26T08:54:14.100Z,78.92
2022-11-26T08:59:17.419Z,79.44
2022-11-26T09:04:18.920Z,79.21
2022-11-26T09:09:20.547Z,78.78
2022-11-26T09:14:27.244Z,79.80
2022-11-26T09:19:29.180Z,80.03
2022-11-26T09:24:30.813Z,80.01
2022-11-26T09:29:32.383Z,80.58
2022-11-26T09:34:33.937Z,80.23
2022-11-26T09:39:35.818Z,79.74
2022-11-26T09:44:51.953Z,79.41
2022-11-26T09:50:19.010Z,79.33
2022-11-26T09:55:27.703Z,79.14
2022-11-26T10:00:37.500Z,79.24
2022-11-26T10:05:59.416Z,79.38
2022-11-26T10:11:09.776Z,79.29
2022-11-26T10:16:19.066Z,78.81
2022-11-26T10:21:51.721Z,79.14
2022-11-26T10:26:49.785Z,78.74
2022-11-26T10:31:57.701Z,78.95
2022-11-26T10:36:59.784Z,78.70
2022-11-26T10:42:13.547Z,79.11
2022-11-26T10:47:31.676Z,78.81
2022-11-26T10:52:34.296Z,78.78
2022-11-26T10:57:43.775Z,78.51
2022-11-26T11:02:49.320Z,78.33
2022-11-26T11:07:53.919Z,78.15
2022-11-26T11:13:14.586Z,77.90
2022-11-26T11:18:22.005Z,77.52
2022-11-26T11:23:45.792Z,76.94
2022-11-26T11:28:51.663Z,77.32
2022-11-26T11:34:13.736Z,76.93
2022-11-26T11:39:30.131Z,76.35
2022-11-26T11:44:39.703Z,75.93
2022-11-26T11:50:05.653Z,76.16
2022-11-26T11:55:25.749Z,76.06
2022-11-26T12:00:58.364Z,76.21
2022-11-26T12:06:14.983Z,75.81
2022-11-26T12:11:29.881Z,75.67
2022-11-26T12:16:37.872Z,76.07
2022-11-26T12:21:46.014Z,75.32
2022-11-26T12:27:26.190Z,75.60
2022-11-26T12:32:39.862Z,74.87
2022-11-26T12:37:42.638Z,74.55
2022-11-26T12:43:13.391Z,74.46
2022-11-26T12:48:28.187Z,74.26
2022-11-26T12:53:33.236Z,74.53
2022-11-26T12:58:47.614Z,73.90
2022-11-26T13:03:59.395Z,74.17
2022-11-26T13:09:37.821Z,73.58
2022-11-26T13:14:59.472Z,74.22
2022-11-26T13:20:21.212Z,74.03
2022-11-26T13:25:51.794Z,74.03
2022-11-26T13:31:21.283Z,74.13
2022-11-26T13:36:46.212Z,74.03
2022-11-26T13:42:14.097Z,74.20
2022-11-26T13:47:39.319Z,74.01
2022-11-26T13:53:06.786Z,74.20
2022-11-26T13:58:17.742Z,74.21
2022-11-26T14:03:45.735Z,74.38
2022-11-26T14:08:50.721Z,74.56
2022-11-26T14:14:24.592Z,74.49
2022-11-26T14:19:41.183Z,74.27
2022-11-26T14:24:49.058Z,74.56
2022-11-26T14:30:27.711Z,74.53
2022-11-26T14:35:35.837Z,74.41
2022-11-26T14:40:38.366Z,74.72
2022-11-26T14:45:40.865Z,74.74
2022-11-26T14:50:43.797Z,74.53
2022-11-26T14:55:46.277Z,74.48
2022-11-26T15:01:15.987Z,74.32
2022-11-26T15:06:38.434Z,74.32
2022-11-26T15:11:45.996Z,74.66
2022-11-26T15:16:55.418Z,74.23
2022-11-26T15:21:57.322Z,74.31
2022-11-26T15:26:59.034Z,74.18
2022-11-26T15:32:01.018Z,73.90
2022-11-26T15:37:04.636Z,73.75
2022-11-26T15:42:25.470Z,73.80
2022-11-26T15:47:28.781Z,74.06
2022-11-26T15:52:32.865Z,73.71
2022-11-26T15:57:37.747Z,73.93
2022-11-26T16:02:39.166Z,73.96
2022-11-26T16:07:56.147Z,73.87
2022-11-26T16:13:15.657Z,73.68
2022-11-26T16:18:23.516Z,73.75
2022-11-26T16:23:28.744Z,73.87
2022-11-26T16:28:30.131Z,73.63
2022-11-26T16:33:31.477Z,73.41
2022-11-26T16:38:32.820Z,73.66
2022-11-26T16:43:34.158Z,73.05
2022-11-26T16:48:35.624Z,73.06
2022-11-26T16:53:38.406Z,72.57
2022-11-26T16:58:40.132Z,72.62
2022-11-26T17:03:43.980Z,72.53
2022-11-26T17:08:49.767Z,72.44
2022-11-26T17:13:53.086Z,72.40
2022-11-26T17:18:59.180Z,72.72
2022-11-26T17:24:08.465Z,72.39
2022-11-26T17:29:13.364Z,72.21
2022-11-26T17:34:14.950Z,72.12
2022-11-26T17:39:19.877Z,72.38
2022-11-26T17:44:22.387Z,72.34
2022-11-26T17:49:24.312Z,72.22
2022-11-26T17:54:26.060Z,71.77
2022-11-26T17:59:28.463Z,71.85
2022-11-26T18:04:30.213Z,72.07
2022-11-26T18:09:32.992Z,72.01
2022-11-26T18:14:35.847Z,71.85
2022-11-26T18:19:43.723Z,71.89
2022-11-26T18:24:56.377Z,71.68
2022-11-26T18:29:58.631Z,71.85
2022-11-26T18:35:01.359Z,71.62
2022-11-26T18:40:03.395Z,71.57
2022-11-26T18:45:12.065Z,71.79
2022-11-26T18:50:14.109Z,72.19
2022-11-26T18:55:15.960Z,72.06
2022-11-26T19:00:19.665Z,71.95
2022-11-26T19:05:21.550Z,71.73
2022-11-26T19:10:24.590Z,72.22
2022-11-26T19:15:26.234Z,72.07
2022-11-26T19:20:27.988Z,71.99
2022-11-26T19:25:30.627Z,71.67
2022-11-26T19:30:32.167Z,71.87
2022-11-26T19:35:33.614Z,71.80
2022-11-26T19:40:34.981Z,71.81
2022-11-26T19:45:36.347Z,72.11
2022-11-26T19:50:37.826Z,72.09
2022-11-26T19:55:39.171Z,72.06
2022-11-26T20:00:42.723Z,71.56
2022-11-26T20:05:44.651Z,72.01
2022-11-26T20:10:49.847Z,71.51
2022-11-26T20:15:51.443Z,71.72
2022-11-26T20:21:01.301Z,71.46
2022-11-26T20:26:03.223Z,71.48
2022-11-26T20:31:05.720Z,71.36
2022-11-26T20:36:08.800Z,71.29
2022-11-26T20:41:13.406Z,70.99
2022-11-26T20:46:15.227Z,70.91
2022-11-26T20:51:19.179Z,71.06
2022-11-26T20:56:21.930Z,70.93
2022-11-26T21:01:28.274Z,71.05
2022-11-26T21:06:30.637Z,70.68
2022-11-26T21:11:32.226Z,70.79
2022-11-26T21:16:34.210Z,70.96
2022-11-26T21:21:35.569Z,71.39
2022-11-26T21:26:36.946Z,71.23
2022-11-26T21:31:38.416Z,70.98
2022-11-26T21:36:40.034Z,70.76
2022-11-26T21:41:41.548Z,70.73
2022-11-26T21:46:42.932Z,70.61
2022-11-26T21:51:44.348Z,70.47
2022-11-26T21:56:45.716Z,70.44
2022-11-26T22:01:47.197Z,70.24
2022-11-26T22:06:49.117Z,70.80
2022-11-26T22:11:50.623Z,70.44
2022-11-26T22:16:52.766Z,70.33
2022-11-26T22:21:54.151Z,69.98
2022-11-26T22:26:55.743Z,70.00
2022-11-26T22:31:57.135Z,70.01
2022-11-26T22:36:58.493Z,69.83
2022-11-26T22:41:59.835Z,69.73
2022-11-26T22:47:01.172Z,69.44
2022-11-26T22:52:02.538Z,69.46
2022-11-26T22:57:03.923Z,69.57
2022-11-26T23:02:05.336Z,69.38
2022-11-26T23:07:06.782Z,69.25
2022-11-26T23:12:08.122Z,69.18
2022-11-26T23:17:09.462Z,69.04
2022-11-26T23:22:10.826Z,68.95
2022-11-26T23:27:12.182Z,68.90
2022-11-26T23:32:13.549Z,68.57
2022-11-26T23:37:14.892Z,68.53
2022-11-26T23:42:16.470Z,68.52
2022-11-26T23:47:17.816Z,68.81
2022-11-26T23:52:19.166Z,68.60
2022-11-26T23:57:20.514Z,68.61
